Time;durP1;ratioP1;P1;durP2;ratioP2;P2;SDS_P1;SDS_P2;PMS_P1;PMS_P2;Temp;Humidity;BMP_temperature;BMP_pressure;BME280_temperature;BME280_humidity;BME280_pressure;Samples;Min_cycle;Max_cycle;Signal;HPM_P1;HPM_P2
2022/04/25 10:32:37;;;;;;;22.60;10.43;;;;;;;18.25;42.55;98917.88;5118727;27;20359;-79
2022/04/25 10:35:16;;;;;;;16.88;11.20;;;;;;;18.23;42.49;98917.44;5100444;28;20063;-76
2022/04/25 10:37:45;;;;;;;22.33;11.43;;;;;;;18.28;42.31;98925.44;5105498;28;20062;-83
2022/04/25 10:40:14;;;;;;;15.07;10.05;;;;;;;18.26;42.67;98911.97;5104334;28;20679;-86
2022/04/25 10:46:06;;;;;;;14.93;10.15;;;;;;;18.46;41.88;98909.84;5093480;28;20459;-77
2022/04/25 10:49:24;;;;;;;23.92;9.48;;;;;;;18.52;41.20;98907.56;5099237;28;20051;-80
2022/04/25 10:52:27;;;;;;;17.63;9.73;;;;;;;18.87;41.35;98895.34;5063401;28;20164;-78
2022/04/25 10:55:14;;;;;;;11.95;7.30;;;;;;;18.76;37.28;98900.75;5093823;28;20081;-78
2022/04/25 10:58:07;;;;;;;16.83;8.52;;;;;;;18.75;39.59;98901.94;5094589;28;20039;-79
2022/04/25 11:00:50;;;;;;;14.57;8.60;;;;;;;18.79;39.43;98894.47;5092815;28;20044;-78
2022/04/25 11:03:27;;;;;;;15.60;8.00;;;;;;;18.91;38.80;98894.22;5093462;28;20189;-80
2022/04/25 11:06:12;;;;;;;13.32;8.60;;;;;;;19.06;38.90;98869.44;5093535;28;20462;-78
2022/04/25 11:09:05;;;;;;;12.20;8.15;;;;;;;18.98;38.47;98880.44;5093853;28;20074;-79
2022/04/25 11:11:52;;;;;;;11.43;8.18;;;;;;;19.02;38.89;98867.41;5077166;28;20047;-77
2022/04/25 11:14:24;;;;;;;17.58;9.35;;;;;;;19.00;39.09;98880.84;5076190;28;20062;-78
2022/04/25 11:17:14;;;;;;;14.88;7.80;;;;;;;18.94;39.38;98893.47;5104555;28;20047;-79
2022/04/25 11:19:54;;;;;;;12.48;8.13;;;;;;;18.87;38.96;98892.56;5108407;28;20446;-78
2022/04/25 11:23:23;;;;;;;15.02;8.15;;;;;;;18.79;39.76;98894.47;5107917;28;20134;-78
2022/04/25 11:25:55;;;;;;;20.38;7.20;;;;;;;18.70;39.71;98878.09;5108270;28;20070;-79
2022/04/25 11:28:24;;;;;;;15.55;8.48;;;;;;;18.59;39.07;98893.00;5108355;28;20515;-76
2022/04/25 11:31:13;;;;;;;16.98;9.15;;;;;;;18.54;38.99;98881.09;5107919;28;20048;-79
2022/04/25 11:33:54;;;;;;;27.92;11.15;;;;;;;18.81;40.85;98903.22;5108374;28;20511;-77
2022/04/25 11:36:24;;;;;;;42.28;21.90;;;;;;;19.05;39.42;98879.72;5107882;28;20040;-77
2022/04/25 11:41:48;;;;;;;569.88;200.00;;;;;;;18.94;38.76;98873.25;5107410;28;20036;-80
2022/04/25 11:44:26;;;;;;;365.92;128.82;;;;;;;18.96;39.92;98868.13;5096164;28;20067;-88
2022/04/25 11:47:07;;;;;;;186.10;68.88;;;;;;;19.00;40.12;98871.75;5096213;28;20131;-84
2022/04/25 11:50:11;;;;;;;33.30;16.75;;;;;;;18.96;38.08;98868.94;5096674;28;20101;-80
2022/04/25 11:53:10;;;;;;;15.60;8.73;;;;;;;19.03;37.06;98859.91;5097944;28;20051;-83
2022/04/25 11:55:51;;;;;;;83.80;43.03;;;;;;;19.06;37.15;98864.69;5093730;28;20052;-80
2022/04/25 11:59:22;;;;;;;124.03;78.05;;;;;;;19.16;38.51;98868.72;5091827;28;20593;-79
2022/04/25 12:02:07;;;;;;;26.33;16.65;;;;;;;19.37;38.19;98843.19;5045310;28;20472;-80
2022/04/25 12:17:08;;;;;;;21.23;14.98;;;;;;;19.19;37.06;98849.38;4974245;28;20034;-86
2022/04/25 12:20:06;;;;;;;18.77;14.15;;;;;;;19.20;37.48;98858.47;4971063;28;20117;-79
2022/04/25 12:22:50;;;;;;;12.02;7.85;;;;;;;19.22;37.33;98858.91;4948806;28;20618;-84
2022/04/25 12:25:39;;;;;;;18.02;8.85;;;;;;;19.06;37.60;98861.13;4972253;28;20050;-85
2022/04/25 12:28:31;;;;;;;20.33;13.77;;;;;;;19.09;37.68;98858.38;4962941;28;20102;-79
2022/04/25 12:31:01;;;;;;;25.08;14.07;;;;;;;19.01;37.08;98854.75;4971060;28;20050;-84
2022/04/25 12:33:53;;;;;;;15.60;8.57;;;;;;;18.86;38.00;98863.28;4945573;28;20211;-80
2022/04/25 12:36:38;;;;;;;19.50;9.98;;;;;;;18.70;37.34;98867.03;4935659;29;20054;-76
2022/04/25 12:39:20;;;;;;;10.60;6.78;;;;;;;18.50;37.95;98858.09;4959615;28;20404;-79
2022/04/25 12:42:01;;;;;;;9.77;6.85;;;;;;;18.48;38.41;98873.50;4989211;28;20042;-84
2022/04/25 12:44:33;;;;;;;9.48;6.43;;;;;;;18.36;38.83;98855.16;5004601;28;20075;-85
2022/04/25 12:47:18;;;;;;;10.43;6.85;;;;;;;18.31;38.95;98870.16;5086705;28;20050;-78
2022/04/25 12:49:51;;;;;;;18.80;9.57;;;;;;;18.19;38.70;98869.56;5086381;28;20044;-79
2022/04/25 12:52:30;;;;;;;14.38;6.85;;;;;;;18.13;39.86;98871.88;5090786;28;20040;-75
2022/04/25 12:55:07;;;;;;;14.65;7.10;;;;;;;18.02;39.92;98874.50;5092587;28;20511;-75
2022/04/25 12:57:35;;;;;;;23.13;11.18;;;;;;;17.91;39.64;98865.22;5093029;28;20059;-77
2022/04/25 13:00:04;;;;;;;25.95;14.73;;;;;;;17.80;40.11;98864.28;5092204;28;20075;-77
2022/04/25 13:02:49;;;;;;;10.82;7.45;;;;;;;17.68;40.92;98862.50;5073264;28;20090;-78
2022/04/25 13:05:29;;;;;;;11.02;5.72;;;;;;;17.65;41.12;98865.19;5081846;28;20477;-78
2022/04/25 13:08:28;;;;;;;15.10;6.47;;;;;;;17.52;42.94;98862.66;5093012;28;20058;-78
2022/04/25 13:11:18;;;;;;;14.90;6.10;;;;;;;17.36;42.05;98864.75;5093811;28;20117;-89
2022/04/25 13:14:05;;;;;;;14.68;6.82;;;;;;;17.23;42.30;98866.91;5095196;28;20044;-78
2022/04/25 13:16:32;;;;;;;16.73;6.43;;;;;;;17.21;42.47;98868.41;5093013;28;20480;-85
2022/04/25 13:19:08;;;;;;;22.55;8.20;;;;;;;17.12;44.90;98865.94;5092774;28;20059;-78
2022/04/25 13:21:39;;;;;;;13.88;6.78;;;;;;;17.08;44.82;98876.09;5092775;28;20036;-84
2022/04/25 13:24:14;;;;;;;20.70;8.73;;;;;;;16.99;46.54;98870.81;5077295;28;20036;-78
2022/04/25 13:26:47;;;;;;;13.52;6.90;;;;;;;16.90;45.04;98873.81;5095089;28;20047;-89
2022/04/25 13:29:35;;;;;;;12.60;6.40;;;;;;;16.77;46.36;98872.38;5087120;28;20031;-89
2022/04/25 13:32:13;;;;;;;19.15;7.75;;;;;;;16.57;47.02;98873.53;5095703;28;20052;-88
2022/04/25 13:34:43;;;;;;;20.15;9.45;;;;;;;16.60;47.74;98884.63;5093288;28;20127;-79
2022/04/25 13:37:20;;;;;;;;;;;;;;;16.58;48.91;98864.88;5093726;28;20040;-77
2022/04/25 13:39:56;;;;;;;24.63;9.73;;;;;;;16.59;48.72;98872.00;5092556;28;19924;-78
2022/04/25 13:42:31;;;;;;;14.68;7.47;;;;;;;16.62;48.19;98865.75;5091642;28;20051;-74
2022/04/25 13:45:02;;;;;;;23.42;8.82;;;;;;;16.68;47.00;98855.19;5092136;28;20063;-75
2022/04/25 13:47:32;;;;;;;14.15;5.90;;;;;;;16.65;46.87;98856.75;5092327;28;20078;-74
2022/04/25 13:50:01;;;;;;;35.28;15.70;;;;;;;16.70;47.26;98855.66;5091856;28;20135;-74
2022/04/25 13:52:31;;;;;;;16.15;9.00;;;;;;;16.62;45.87;98851.13;5092690;28;20052;-74
2022/04/25 13:55:07;;;;;;;8.90;5.93;;;;;;;16.62;45.28;98849.19;5091180;28;20040;-74
2022/04/25 13:57:42;;;;;;;11.45;6.05;;;;;;;16.62;45.39;98843.69;5071886;28;20048;-74
2022/04/25 14:00:19;;;;;;;9.93;5.63;;;;;;;16.60;43.89;98839.69;5072034;28;20040;-75
2022/04/25 14:03:11;;;;;;;9.57;5.60;;;;;;;16.62;43.58;98838.16;5071597;28;20036;-74
2022/04/25 14:05:49;;;;;;;8.88;5.32;;;;;;;16.58;43.13;98840.03;5073464;28;20044;-82
2022/04/25 14:08:24;;;;;;;9.07;5.57;;;;;;;16.56;43.36;98847.09;5081956;28;20063;-74
2022/04/25 14:11:19;;;;;;;10.90;5.28;;;;;;;16.51;43.41;98847.38;5091220;28;20079;-75
2022/04/25 14:14:18;;;;;;;13.15;6.25;;;;;;;16.41;43.77;98833.00;5050283;28;20045;-75
2022/04/25 14:17:10;;;;;;;11.75;5.72;;;;;;;16.38;44.12;98843.97;5031039;28;20052;-74
2022/04/25 14:19:54;;;;;;;;;;;;;;;;;;;;;
2022/04/25 14:22:28;;;;;;;8.52;5.85;;;;;;;16.35;45.09;98844.69;5029192;28;20037;-77
2022/04/25 14:25:24;;;;;;;12.65;6.80;;;;;;;16.32;45.35;98842.66;5029548;28;20082;-78
2022/04/25 14:28:03;;;;;;;19.30;7.45;;;;;;;16.32;46.40;98834.38;5029736;28;20144;-86
2022/04/25 14:30:42;;;;;;;16.02;7.53;;;;;;;16.31;46.10;98836.34;5032537;28;20045;-75
2022/04/25 14:33:09;;;;;;;14.02;6.20;;;;;;;16.28;45.79;98841.78;5034832;28;20095;-74
2022/04/25 14:35:36;;;;;;;21.70;7.32;;;;;;;16.27;46.53;98831.94;5053811;28;20136;-74
2022/04/25 14:38:02;;;;;;;14.98;6.55;;;;;;;16.31;46.53;98832.78;5051468;28;20136;-89
2022/04/25 14:40:36;;;;;;;12.63;6.43;;;;;;;16.18;45.76;98834.88;5050508;28;20075;-74
2022/04/25 14:43:11;;;;;;;11.00;6.05;;;;;;;16.15;46.27;98830.88;5049201;28;20041;-74
2022/04/25 14:45:37;;;;;;;13.23;6.50;;;;;;;16.21;46.72;98837.72;5055935;28;20057;-80
2022/04/25 14:48:10;;;;;;;16.17;5.82;;;;;;;16.22;46.69;98844.03;5052805;28;20037;-81
2022/04/25 14:57:44;;;;;;;25.80;5.75;;;;;;;16.11;45.98;98832.00;5094082;28;20044;-86
2022/04/25 15:00:15;;;;;;;24.02;6.78;;;;;;;16.16;46.52;98827.00;5096356;28;20404;-86
2022/04/25 15:02:44;;;;;;;26.25;6.78;;;;;;;16.16;46.55;98838.03;5096696;28;20040;-86
2022/04/25 15:05:14;;;;;;;19.00;6.38;;;;;;;16.20;47.03;98824.31;5100744;28;20032;-88
2022/04/25 15:07:54;;;;;;;17.80;7.15;;;;;;;16.23;47.64;98823.59;5096947;28;20051;-87
2022/04/25 15:10:22;;;;;;;15.60;6.82;;;;;;;16.21;47.45;98823.94;5101900;28;20040;-86
2022/04/25 15:13:00;;;;;;;18.73;6.68;;;;;;;16.13;48.07;98827.72;5098643;28;20048;-87
2022/04/25 15:15:30;;;;;;;21.40;7.07;;;;;;;16.18;47.86;98824.66;5096807;28;20047;-85
2022/04/25 15:18:10;;;;;;;14.35;6.85;;;;;;;16.06;47.77;98805.50;5095137;28;20048;-73
2022/04/25 15:21:00;;;;;;;17.73;6.25;;;;;;;16.06;48.65;98826.75;5096414;28;20066;-74
2022/04/25 15:23:32;;;;;;;13.60;7.43;;;;;;;15.97;48.66;98821.47;5076328;28;20131;-86
2022/04/25 15:26:11;;;;;;;25.63;6.80;;;;;;;15.91;48.70;98823.69;5076372;28;20069;-79
2022/04/25 15:28:37;;;;;;;18.45;7.30;;;;;;;15.84;49.37;98822.75;5073804;28;20060;-73
2022/04/25 15:31:24;;;;;;;;;;;;;;;15.85;49.43;98819.63;5071778;28;20048;-73
2022/04/25 15:33:57;;;;;;;21.50;7.25;;;;;;;15.79;50.11;98812.00;5072923;28;19965;-73
2022/04/25 15:36:29;;;;;;;30.98;7.75;;;;;;;15.71;49.95;98806.31;5072031;28;20491;-84
2022/04/25 15:39:00;;;;;;;19.25;7.50;;;;;;;15.65;50.84;98810.47;5074058;28;20175;-74
2022/04/25 15:41:49;;;;;;;19.55;7.63;;;;;;;15.59;51.57;98794.59;5071355;28;20054;-76
2022/04/25 15:44:26;;;;;;;25.65;7.95;;;;;;;15.86;51.96;98810.22;5054527;28;20036;-74
2022/04/25 15:46:54;;;;;;;22.30;7.60;;;;;;;15.80;50.14;98803.38;5070931;28;20055;-74
2022/04/25 15:49:23;;;;;;;15.82;7.30;;;;;;;15.86;51.08;98820.41;5070955;28;20139;-73
2022/04/25 15:51:53;;;;;;;24.88;8.38;;;;;;;15.70;51.52;98809.44;5055460;28;20067;-86
2022/04/25 16:00:14;;;;;;;25.02;9.25;;;;;;;15.57;52.49;98800.47;5086308;28;20048;-83
2022/04/25 16:02:49;;;;;;;13.35;8.18;;;;;;;15.56;51.93;98798.84;5096052;28;20554;-75
2022/04/25 16:05:38;;;;;;;14.63;8.68;;;;;;;15.52;51.86;98809.00;5094158;28;20040;-75
2022/04/25 16:08:23;;;;;;;18.95;9.25;;;;;;;15.43;51.09;98797.38;5097004;28;20032;-76
2022/04/25 16:11:14;;;;;;;21.38;9.85;;;;;;;15.34;51.48;98792.06;5097542;28;20032;-84
2022/04/25 16:14:00;;;;;;;26.42;10.07;;;;;;;15.40;52.33;98793.41;5088525;28;20044;-84
2022/04/25 16:16:38;;;;;;;23.92;9.98;;;;;;;15.31;52.71;98798.28;5078116;28;20501;-80
2022/04/25 16:19:10;;;;;;;27.85;11.27;;;;;;;15.29;52.60;98795.06;5074488;28;20109;-75
2022/04/25 16:21:41;;;;;;;28.20;13.10;;;;;;;15.37;52.94;98798.81;5098187;28;20039;-77
2022/04/25 16:24:10;;;;;;;74.00;26.27;;;;;;;15.26;53.30;98802.13;5089024;28;20051;-76
2022/04/25 16:26:41;;;;;;;41.80;18.38;;;;;;;15.32;54.28;98807.34;5095019;28;20047;-80
2022/04/25 16:29:33;;;;;;;93.55;31.67;;;;;;;15.36;54.56;98802.72;5086839;28;20036;-78
2022/04/25 16:32:09;;;;;;;71.20;22.55;;;;;;;15.32;55.14;98807.34;5094332;28;20544;-86
2022/04/25 16:34:45;;;;;;;35.15;14.18;;;;;;;15.24;55.76;98811.88;5087121;28;20519;-80
2022/04/25 16:37:25;;;;;;;51.33;16.42;;;;;;;15.20;56.36;98808.25;5095156;28;20070;-76
2022/04/25 16:40:02;;;;;;;33.08;13.10;;;;;;;15.13;56.56;98805.28;5087983;28;20032;-78
2022/04/25 16:43:02;;;;;;;18.15;11.13;;;;;;;15.06;55.84;98811.44;5096856;28;20051;-80
2022/04/25 16:48:55;;;;;;;40.97;19.58;;;;;;;15.14;56.44;98807.72;5096294;28;20046;-84
2022/04/25 16:51:29;;;;;;;35.22;16.92;;;;;;;15.12;56.99;98801.75;5090521;28;20048;-75
2022/04/25 16:54:04;;;;;;;31.88;16.63;;;;;;;15.12;57.29;98807.25;5089632;28;20044;-78
2022/04/25 16:56:47;;;;;;;27.45;12.50;;;;;;;15.11;57.30;98800.16;5087703;28;20093;-82
2022/04/25 16:59:20;;;;;;;27.70;13.52;;;;;;;15.08;57.54;98795.38;5083235;28;20077;-75
2022/04/25 17:01:49;;;;;;;51.83;23.05;;;;;;;15.16;57.83;98799.88;5090254;28;20548;-75
2022/04/25 17:04:25;;;;;;;61.83;25.52;;;;;;;15.14;58.12;98804.16;5083392;28;20055;-80
2022/04/25 17:06:54;;;;;;;39.60;18.35;;;;;;;15.07;58.63;98799.28;5094243;28;20044;-83
2022/04/25 17:09:27;;;;;;;27.08;13.52;;;;;;;15.05;59.95;98804.34;5084576;28;20043;-74
2022/04/25 17:11:59;;;;;;;36.63;14.48;;;;;;;15.01;60.63;98797.94;5087890;28;20039;-81
2022/04/25 17:15:04;;;;;;;29.75;16.02;;;;;;;14.92;60.48;98802.81;5082511;28;20059;-80
2022/04/25 17:17:40;;;;;;;40.50;16.42;;;;;;;14.85;60.93;98797.94;5089071;28;20044;-84
2022/04/25 17:20:19;;;;;;;37.15;17.45;;;;;;;14.89;60.11;98801.56;5087452;28;20051;-80
2022/04/25 17:22:53;;;;;;;38.22;19.83;;;;;;;14.86;60.21;98790.47;5093532;28;20036;-83
2022/04/25 17:25:39;;;;;;;52.78;22.85;;;;;;;14.79;59.71;98799.34;5077331;28;20044;-75
2022/04/25 17:28:20;;;;;;;49.30;20.95;;;;;;;14.69;60.10;98788.88;5084696;28;20035;-79
2022/04/25 17:35:20;;;;;;;42.92;21.38;;;;;;;14.61;60.07;98793.38;5066107;28;20067;-79
2022/04/25 17:36:42;;;;;;;56.70;26.75;;;;;;;14.44;60.71;98805.47;5082714;28;20036;-83
